createdAt,value
2022-07-29T00:01:43.503Z,-67
2022-07-29T00:04:12.548Z,-67
2022-07-29T00:06:41.210Z,-68
2022-07-29T00:09:09.892Z,-67
2022-07-29T00:11:38.645Z,-68
2022-07-29T00:14:07.304Z,-68
2022-07-29T00:16:35.889Z,-67
2022-07-29T00:19:04.775Z,-67
2022-07-29T00:21:33.240Z,-68
2022-07-29T00:24:01.704Z,-67
2022-07-29T00:26:32.722Z,-67
2022-07-29T00:29:32.975Z,-68
2022-07-29T00:31:55.402Z,-68
2022-07-29T00:34:41.632Z,-68
2022-07-29T00:37:10.056Z,-67
2022-07-29T00:39:38.496Z,-67
2022-07-29T00:42:07.342Z,-68
2022-07-29T00:44:40.694Z,-68
2022-07-29T00:47:09.993Z,-67
2022-07-29T00:49:43.656Z,-67
2022-07-29T00:52:16.994Z,-67
2022-07-29T00:54:45.743Z,-66
2022-07-29T00:57:14.606Z,-67
2022-07-29T00:59:43.069Z,-67
2022-07-29T01:02:11.560Z,-67
2022-07-29T01:04:40.089Z,-67
2022-07-29T01:07:09.226Z,-67
2022-07-29T01:09:45.247Z,-68
2022-07-29T01:12:25.468Z,-67
2022-07-29T01:14:55.881Z,-67
2022-07-29T01:17:33.679Z,-67
2022-07-29T01:20:50.281Z,-67
2022-07-29T01:23:21.321Z,-67
2022-07-29T01:25:56.062Z,-68
2022-07-29T01:28:57.981Z,-68
2022-07-29T01:32:00.561Z,-68
2022-07-29T01:34:44.181Z,-67
2022-07-29T01:37:36.555Z,-67
2022-07-29T01:40:07.371Z,-67
2022-07-29T01:42:46.618Z,-67
2022-07-29T01:46:12.144Z,-67
2022-07-29T01:48:50.404Z,-68
2022-07-29T01:51:28.280Z,-68
2022-07-29T01:54:20.884Z,-68
2022-07-29T01:56:53.581Z,-68
2022-07-29T01:59:24.298Z,-68
2022-07-29T02:01:55.911Z,-67
2022-07-29T02:04:29.213Z,-68
2022-07-29T02:07:04.800Z,-67
2022-07-29T02:09:36.464Z,-67
2022-07-29T02:12:06.471Z,-67
2022-07-29T02:14:42.933Z,-67
2022-07-29T02:17:13.517Z,-68
2022-07-29T02:19:43.392Z,-67
2022-07-29T02:22:13.492Z,-67
2022-07-29T02:24:42.205Z,-67
2022-07-29T02:27:10.981Z,-67
2022-07-29T02:29:41.948Z,-67
2022-07-29T02:32:13.464Z,-68
2022-07-29T02:34:43.709Z,-67
2022-07-29T02:37:13.581Z,-68
2022-07-29T02:39:44.769Z,-67
2022-07-29T02:42:18.862Z,-67
2022-07-29T02:44:47.355Z,-67
2022-07-29T02:47:42.331Z,-67
2022-07-29T02:50:18.046Z,-67
2022-07-29T02:53:03.272Z,-67
2022-07-29T02:55:38.742Z,-67
2022-07-29T02:58:49.352Z,-68
2022-07-29T03:01:23.846Z,-67
2022-07-29T03:03:55.462Z,-68
2022-07-29T03:06:37.893Z,-68
2022-07-29T03:09:13.352Z,-67
2022-07-29T03:11:49.988Z,-67
2022-07-29T03:14:21.676Z,-67
2022-07-29T03:16:51.393Z,-68
2022-07-29T03:19:21.357Z,-68
2022-07-29T03:21:50.089Z,-68
2022-07-29T03:24:32.340Z,-68
2022-07-29T03:27:01.221Z,-68
2022-07-29T03:29:33.503Z,-68
2022-07-29T03:32:08.301Z,-69
2022-07-29T03:34:38.047Z,-68
2022-07-29T03:37:07.941Z,-69
2022-07-29T03:39:43.020Z,-69
2022-07-29T03:42:21.743Z,-68
2022-07-29T03:44:51.260Z,-68
2022-07-29T03:47:43.555Z,-68
2022-07-29T03:50:17.991Z,-68
2022-07-29T03:52:46.437Z,-68
2022-07-29T03:55:15.414Z,-69
2022-07-29T03:57:45.096Z,-68
2022-07-29T04:00:14.285Z,-69
2022-07-29T04:02:46.085Z,-69
2022-07-29T04:05:15.686Z,-69
2022-07-29T04:07:47.464Z,-68
2022-07-29T04:10:17.922Z,-69
2022-07-29T04:12:59.244Z,-68
2022-07-29T04:15:31.060Z,-68
2022-07-29T04:18:00.909Z,-69
2022-07-29T04:20:29.477Z,-68
2022-07-29T04:22:57.871Z,-68
2022-07-29T04:25:26.401Z,-68
2022-07-29T04:28:03.858Z,-67
2022-07-29T04:30:34.405Z,-68
2022-07-29T04:33:05.204Z,-67
2022-07-29T04:35:38.287Z,-68
2022-07-29T04:38:15.672Z,-67
2022-07-29T04:40:45.533Z,-68
2022-07-29T04:43:16.099Z,-68
2022-07-29T04:45:44.946Z,-68
2022-07-29T04:48:13.930Z,-68
2022-07-29T04:50:43.127Z,-68
2022-07-29T04:53:11.550Z,-68
2022-07-29T04:55:39.955Z,-68
2022-07-29T04:58:08.549Z,-69
2022-07-29T05:00:37.114Z,-68
2022-07-29T05:03:05.955Z,-68
2022-07-29T05:05:34.723Z,-68
2022-07-29T05:08:03.175Z,-69
2022-07-29T05:10:31.626Z,-68
2022-07-29T05:13:00.101Z,-68
2022-07-29T05:15:28.546Z,-68
2022-07-29T05:17:57.046Z,-69
2022-07-29T05:20:29.144Z,-68
2022-07-29T05:23:01.879Z,-68
2022-07-29T05:25:44.340Z,-68
2022-07-29T05:28:13.729Z,-68
2022-07-29T05:30:42.293Z,-68
2022-07-29T05:33:35.064Z,-68
2022-07-29T05:36:00.760Z,-68
2022-07-29T05:38:30.180Z,-69
2022-07-29T05:41:00.707Z,-68
2022-07-29T05:43:30.389Z,-68
2022-07-29T05:45:59.007Z,-68
2022-07-29T05:48:27.616Z,-68
2022-07-29T05:50:56.853Z,-69
2022-07-29T05:53:25.652Z,-68
2022-07-29T05:55:54.255Z,-69
2022-07-29T05:58:23.064Z,-69
2022-07-29T06:00:51.607Z,-67
2022-07-29T06:03:20.031Z,-68
2022-07-29T06:05:48.439Z,-68
2022-07-29T06:08:16.865Z,-68
2022-07-29T06:10:45.279Z,-69
2022-07-29T06:13:14.138Z,-68
2022-07-29T06:15:42.827Z,-68
2022-07-29T06:18:11.754Z,-68
2022-07-29T06:20:40.311Z,-69
2022-07-29T06:23:08.717Z,-68
2022-07-29T06:25:37.712Z,-68
2022-07-29T06:28:06.316Z,-67
2022-07-29T06:30:34.918Z,-68
2022-07-29T06:33:03.748Z,-69
2022-07-29T06:35:41.229Z,-70
2022-07-29T06:38:33.925Z,-68
2022-07-29T06:41:04.901Z,-69
2022-07-29T06:43:51.754Z,-69
2022-07-29T06:46:22.296Z,-69
2022-07-29T06:48:51.318Z,-68
2022-07-29T06:51:22.213Z,-69
2022-07-29T06:54:00.394Z,-69
2022-07-29T06:56:39.337Z,-69
2022-07-29T06:59:09.552Z,-69
2022-07-29T07:01:40.217Z,-68
2022-07-29T07:04:09.870Z,-68
2022-07-29T07:06:38.874Z,-68
2022-07-29T07:09:07.397Z,-68
2022-07-29T07:11:35.923Z,-68
2022-07-29T07:14:05.105Z,-69
2022-07-29T07:16:34.226Z,-69
2022-07-29T07:19:03.132Z,-69
2022-07-29T07:21:31.895Z,-69
2022-07-29T07:24:01.514Z,-69
2022-07-29T07:26:30.829Z,-69
2022-07-29T07:29:00.391Z,-69
2022-07-29T07:31:28.877Z,-69
2022-07-29T07:33:57.324Z,-69
2022-07-29T07:36:26.066Z,-69
2022-07-29T07:38:54.504Z,-69
2022-07-29T07:41:23.351Z,-69
2022-07-29T07:43:51.766Z,-69
2022-07-29T07:46:22.261Z,-69
2022-07-29T07:48:50.960Z,-69
2022-07-29T07:51:19.414Z,-69
2022-07-29T07:53:50.616Z,-70
2022-07-29T07:56:19.610Z,-69
2022-07-29T07:58:48.045Z,-69
2022-07-29T08:01:20.043Z,-70
2022-07-29T08:03:48.628Z,-70
2022-07-29T08:06:17.141Z,-69
2022-07-29T08:08:45.601Z,-69
2022-07-29T08:11:14.348Z,-69
2022-07-29T08:13:42.851Z,-69
2022-07-29T08:16:14.343Z,-67
2022-07-29T08:18:44.860Z,-69
2022-07-29T08:21:14.868Z,-69
2022-07-29T08:23:58.943Z,-69
2022-07-29T08:26:29.331Z,-69
2022-07-29T08:28:57.735Z,-68
2022-07-29T08:31:26.352Z,-70
2022-07-29T08:33:54.802Z,-69
2022-07-29T08:36:23.294Z,-70
2022-07-29T08:38:52.007Z,-70
2022-07-29T08:41:21.768Z,-69
2022-07-29T08:43:54.069Z,-69
2022-07-29T08:46:23.580Z,-68
2022-07-29T08:48:52.519Z,-69
2022-07-29T08:51:22.185Z,-69
2022-07-29T08:53:52.153Z,-70
2022-07-29T08:56:22.701Z,-69
2022-07-29T08:58:52.592Z,-69
2022-07-29T09:01:35.646Z,-69
2022-07-29T09:04:08.710Z,-70
2022-07-29T09:06:41.282Z,-70
2022-07-29T09:09:10.928Z,-70
2022-07-29T09:11:39.584Z,-69
2022-07-29T09:14:08.339Z,-70
2022-07-29T09:16:54.829Z,-69
2022-07-29T09:19:35.868Z,-69
2022-07-29T09:22:11.040Z,-69
2022-07-29T09:24:49.579Z,-69
2022-07-29T09:27:22.847Z,-69
2022-07-29T09:30:12.555Z,-69
2022-07-29T09:33:05.031Z,-69
2022-07-29T09:35:33.846Z,-68
2022-07-29T09:38:15.895Z,-70
2022-07-29T09:40:44.358Z,-70
2022-07-29T09:43:15.094Z,-69
2022-07-29T09:45:43.720Z,-69
2022-07-29T09:48:23.646Z,-69
2022-07-29T09:50:53.500Z,-69
2022-07-29T09:53:35.504Z,-71
2022-07-29T09:56:04.102Z,-69
2022-07-29T09:58:34.603Z,-69
2022-07-29T10:01:03.262Z,-71
2022-07-29T10:03:31.905Z,-70
2022-07-29T10:06:14.568Z,-69
2022-07-29T10:08:44.543Z,-69
2022-07-29T10:11:14.746Z,-69
2022-07-29T10:13:44.471Z,-69
2022-07-29T10:16:14.274Z,-69
2022-07-29T10:18:47.909Z,-68
2022-07-29T10:21:22.588Z,-67
2022-07-29T10:24:04.958Z,-67
2022-07-29T10:26:33.490Z,-67
2022-07-29T10:29:02.606Z,-67
2022-07-29T10:32:04.721Z,-68
2022-07-29T10:35:00.163Z,-68
2022-07-29T10:38:16.422Z,-68
2022-07-29T10:41:36.288Z,-67
2022-07-29T10:44:23.207Z,-67
2022-07-29T10:46:54.468Z,-67
2022-07-29T10:49:30.409Z,-67
2022-07-29T10:52:10.368Z,-67
2022-07-29T10:54:39.658Z,-67
2022-07-29T10:57:53.733Z,-67
2022-07-29T11:00:16.942Z,-67
2022-07-29T11:02:50.033Z,-67
2022-07-29T11:05:24.759Z,-67
2022-07-29T11:08:20.468Z,-67
2022-07-29T11:10:51.156Z,-67
2022-07-29T11:13:56.093Z,-67
2022-07-29T11:16:26.662Z,-67
2022-07-29T11:19:16.334Z,-67
2022-07-29T11:21:58.369Z,-67
2022-07-29T11:24:32.483Z,-67
2022-07-29T11:27:14.297Z,-67
2022-07-29T11:29:57.256Z,-67
2022-07-29T11:32:38.372Z,-66
2022-07-29T11:35:17.073Z,-67
2022-07-29T11:37:52.539Z,-66
2022-07-29T11:40:24.367Z,-67
2022-07-29T11:42:52.943Z,-67
2022-07-29T11:45:41.779Z,-67
2022-07-29T11:48:28.798Z,-66
2022-07-29T11:51:00.850Z,-67
2022-07-29T11:53:32.884Z,-68
2022-07-29T11:56:03.658Z,-67
2022-07-29T11:58:32.643Z,-67
2022-07-29T12:01:04.455Z,-68
2022-07-29T12:03:36.214Z,-67
2022-07-29T12:06:15.395Z,-66
2022-07-29T12:08:46.114Z,-68
2022-07-29T12:11:22.684Z,-68
2022-07-29T12:13:53.102Z,-67
2022-07-29T12:16:25.375Z,-67
2022-07-29T12:19:05.288Z,-67
2022-07-29T12:22:06.144Z,-67
2022-07-29T12:24:46.300Z,-67
2022-07-29T12:27:14.939Z,-67
2022-07-29T12:29:47.970Z,-67
2022-07-29T12:32:19.766Z,-66
2022-07-29T12:34:48.468Z,-67
2022-07-29T12:37:17.042Z,-67
2022-07-29T12:39:46.364Z,-67
2022-07-29T12:42:18.550Z,-67
2022-07-29T12:44:50.495Z,-67
2022-07-29T12:47:20.903Z,-68
2022-07-29T12:49:50.351Z,-69
2022-07-29T12:52:35.779Z,-69
2022-07-29T12:55:05.157Z,-68
2022-07-29T12:57:33.937Z,-69
2022-07-29T13:00:12.572Z,-68
2022-07-29T13:02:42.316Z,-68
2022-07-29T13:05:13.741Z,-69
2022-07-29T13:07:55.206Z,-69
2022-07-29T13:10:30.458Z,-69
2022-07-29T13:13:16.856Z,-68
2022-07-29T13:15:48.861Z,-68
2022-07-29T13:18:37.545Z,-69
2022-07-29T13:21:18.953Z,-70
2022-07-29T13:23:47.533Z,-69
2022-07-29T13:26:17.288Z,-69
2022-07-29T13:28:45.428Z,-70
2022-07-29T13:31:13.560Z,-69
2022-07-29T13:33:41.643Z,-70
2022-07-29T13:36:09.784Z,-70
2022-07-29T13:38:38.268Z,-70
2022-07-29T13:41:06.784Z,-69
2022-07-29T13:43:35.702Z,-70
2022-07-29T13:46:03.887Z,-70
2022-07-29T13:48:32.297Z,-70
2022-07-29T13:51:00.389Z,-69
2022-07-29T13:53:28.870Z,-69
2022-07-29T13:55:57.355Z,-70
2022-07-29T13:58:25.686Z,-70
2022-07-29T14:00:53.872Z,-69
2022-07-29T14:03:22.050Z,-71
2022-07-29T14:05:50.150Z,-71
2022-07-29T14:08:18.385Z,-70
2022-07-29T14:10:47.089Z,-70
2022-07-29T14:13:24.747Z,-70
2022-07-29T14:15:54.299Z,-70
2022-07-29T14:18:22.465Z,-70
2022-07-29T14:20:51.683Z,-70
2022-07-29T14:23:20.627Z,-70
2022-07-29T14:25:49.367Z,-70
2022-07-29T14:28:18.169Z,-70
2022-07-29T14:30:46.674Z,-70
2022-07-29T14:33:15.201Z,-70
2022-07-29T14:35:43.360Z,-70
2022-07-29T14:38:11.477Z,-70
2022-07-29T14:40:40.261Z,-69
2022-07-29T14:43:08.983Z,-70
2022-07-29T14:45:37.819Z,-69
2022-07-29T14:48:06.020Z,-70
2022-07-29T14:50:34.642Z,-70
2022-07-29T14:53:03.289Z,-69
2022-07-29T14:55:31.594Z,-70
2022-07-29T14:58:09.832Z,-69
2022-07-29T15:00:40.452Z,-69
2022-07-29T15:03:10.999Z,-68
2022-07-29T15:05:39.698Z,-68
2022-07-29T15:08:09.229Z,-68
2022-07-29T15:10:37.534Z,-68
2022-07-29T15:13:05.975Z,-68
2022-07-29T15:15:34.594Z,-68
2022-07-29T15:18:03.018Z,-68
2022-07-29T15:20:31.573Z,-69
2022-07-29T15:23:00.376Z,-68
2022-07-29T15:25:28.957Z,-68
2022-07-29T15:28:01.267Z,-68
2022-07-29T15:30:34.109Z,-67
2022-07-29T15:33:06.466Z,-68
2022-07-29T15:35:39.937Z,-68
2022-07-29T15:38:09.565Z,-68
2022-07-29T15:40:42.387Z,-68
2022-07-29T15:43:10.454Z,-68
2022-07-29T15:46:04.554Z,-68
2022-07-29T15:48:33.533Z,-68
2022-07-29T15:51:02.454Z,-68
2022-07-29T15:53:30.837Z,-68
2022-07-29T15:56:00.943Z,-68
2022-07-29T15:58:29.055Z,-68
2022-07-29T16:00:57.730Z,-69
2022-07-29T16:03:26.221Z,-68
2022-07-29T16:05:55.047Z,-68
2022-07-29T16:08:23.460Z,-68
2022-07-29T16:10:52.059Z,-68
2022-07-29T16:13:20.891Z,-68
2022-07-29T16:16:02.505Z,-68
2022-07-29T16:18:31.722Z,-70
2022-07-29T16:21:00.412Z,-70
2022-07-29T16:23:28.764Z,-70
2022-07-29T16:26:00.220Z,-69
2022-07-29T16:28:30.358Z,-70
2022-07-29T16:30:59.278Z,-72
2022-07-29T16:33:28.347Z,-72
2022-07-29T16:36:18.634Z,-70
2022-07-29T16:38:48.014Z,-70
2022-07-29T16:41:16.705Z,-70
2022-07-29T16:43:45.251Z,-70
2022-07-29T16:46:17.770Z,-70
2022-07-29T16:48:47.756Z,-71
2022-07-29T16:51:17.289Z,-73
2022-07-29T16:53:45.942Z,-72
2022-07-29T16:56:18.160Z,-73
2022-07-29T16:58:47.232Z,-71
2022-07-29T17:01:16.109Z,-71
2022-07-29T17:04:00.525Z,-71
2022-07-29T17:06:30.041Z,-70
2022-07-29T17:08:59.253Z,-71
2022-07-29T17:11:51.889Z,-71
2022-07-29T17:14:16.481Z,-72
2022-07-29T17:16:51.638Z,-73
2022-07-29T17:19:28.893Z,-72
2022-07-29T17:22:06.742Z,-73
2022-07-29T17:24:39.053Z,-73
2022-07-29T17:27:09.973Z,-72
2022-07-29T17:29:39.305Z,-72
2022-07-29T17:32:09.831Z,-70
2022-07-29T17:34:43.201Z,-70
2022-07-29T17:37:13.767Z,-70
2022-07-29T17:39:43.646Z,-70
2022-07-29T17:42:14.449Z,-69
2022-07-29T17:44:43.215Z,-71
2022-07-29T17:47:16.281Z,-69
2022-07-29T17:49:45.842Z,-71
2022-07-29T17:52:14.583Z,-72
2022-07-29T17:54:43.245Z,-72
2022-07-29T17:57:11.800Z,-69
2022-07-29T17:59:40.305Z,-69
2022-07-29T18:02:10.033Z,-71
2022-07-29T18:04:39.058Z,-71
2022-07-29T18:07:07.678Z,-72
2022-07-29T18:09:39.151Z,-71
2022-07-29T18:12:08.089Z,-72
2022-07-29T18:14:36.573Z,-72
2022-07-29T18:17:05.319Z,-72
2022-07-29T18:19:33.972Z,-72
2022-07-29T18:22:05.371Z,-72
2022-07-29T18:24:34.980Z,-72
2022-07-29T18:27:03.436Z,-71
2022-07-29T18:29:32.182Z,-71
2022-07-29T18:32:01.706Z,-71
2022-07-29T18:34:30.448Z,-71
2022-07-29T18:37:01.465Z,-72
2022-07-29T18:39:30.042Z,-71
2022-07-29T18:41:58.545Z,-71
2022-07-29T18:44:27.133Z,-71
2022-07-29T18:46:56.183Z,-71
2022-07-29T18:49:27.350Z,-71
2022-07-29T18:51:56.883Z,-71
2022-07-29T18:54:25.373Z,-71
2022-07-29T18:56:53.949Z,-71
2022-07-29T18:59:22.415Z,-71
2022-07-29T19:01:51.334Z,-71
2022-07-29T19:04:19.937Z,-71
2022-07-29T19:06:48.527Z,-71
2022-07-29T19:09:17.701Z,-71
2022-07-29T19:11:46.185Z,-71
2022-07-29T19:14:14.607Z,-70
2022-07-29T19:16:43.053Z,-69
2022-07-29T19:19:11.829Z,-71
2022-07-29T19:21:40.396Z,-69
2022-07-29T19:24:13.594Z,-70
2022-07-29T19:26:46.876Z,-70
2022-07-29T19:29:16.147Z,-70
2022-07-29T19:31:45.215Z,-70
2022-07-29T19:34:13.738Z,-70
2022-07-29T19:36:42.423Z,-70
2022-07-29T19:39:11.551Z,-70
2022-07-29T19:41:40.228Z,-70
2022-07-29T19:44:08.781Z,-70
2022-07-29T19:46:38.359Z,-71
2022-07-29T19:49:08.417Z,-70
2022-07-29T19:51:37.461Z,-70
2022-07-29T19:54:06.411Z,-70
2022-07-29T19:56:34.933Z,-71
2022-07-29T19:59:07.411Z,-70
2022-07-29T20:01:36.453Z,-71
2022-07-29T20:04:05.247Z,-71
2022-07-29T20:06:33.923Z,-70
2022-07-29T20:09:02.379Z,-71
2022-07-29T20:11:30.983Z,-70
2022-07-29T20:13:59.560Z,-70
2022-07-29T20:16:28.146Z,-70
2022-07-29T20:18:56.649Z,-69
2022-07-29T20:21:26.766Z,-71
2022-07-29T20:23:56.831Z,-70
2022-07-29T20:26:25.330Z,-70
2022-07-29T20:28:53.872Z,-71
2022-07-29T20:31:22.861Z,-71
2022-07-29T20:33:51.586Z,-70
2022-07-29T20:36:20.201Z,-71
2022-07-29T20:38:48.712Z,-71
2022-07-29T20:41:17.207Z,-71
2022-07-29T20:43:45.837Z,-70
2022-07-29T20:46:14.590Z,-70
2022-07-29T20:48:43.172Z,-70
2022-07-29T20:51:11.831Z,-70
2022-07-29T20:53:41.288Z,-70
2022-07-29T20:56:10.966Z,-71
2022-07-29T20:58:40.544Z,-71
2022-07-29T21:01:09.620Z,-71
2022-07-29T21:03:38.167Z,-71
2022-07-29T21:06:07.890Z,-71
2022-07-29T21:08:36.722Z,-71
2022-07-29T21:11:05.278Z,-71
2022-07-29T21:13:38.308Z,-71
2022-07-29T21:16:14.918Z,-71
2022-07-29T21:18:46.067Z,-70
2022-07-29T21:21:17.972Z,-69
2022-07-29T21:23:47.020Z,-71
2022-07-29T21:26:16.016Z,-71
2022-07-29T21:28:43.966Z,-73
2022-07-29T21:31:16.734Z,-71
2022-07-29T21:33:47.676Z,-73
2022-07-29T21:37:39.270Z,-73
2022-07-29T21:40:08.921Z,-72
2022-07-29T21:42:37.334Z,-71
2022-07-29T21:45:07.558Z,-71
2022-07-29T21:47:38.312Z,-72
2022-07-29T21:50:07.802Z,-73
2022-07-29T21:52:37.345Z,-73
2022-07-29T21:55:06.168Z,-74
2022-07-29T21:57:35.579Z,-73
2022-07-29T22:00:04.173Z,-73
2022-07-29T22:02:32.648Z,-73
2022-07-29T22:05:01.299Z,-72
2022-07-29T22:07:54.250Z,-72
2022-07-29T22:10:18.654Z,-75
2022-07-29T22:12:47.116Z,-72
2022-07-29T22:15:15.673Z,-72
2022-07-29T22:17:45.005Z,-72
2022-07-29T22:20:14.117Z,-67
2022-07-29T22:22:42.891Z,-67
2022-07-29T22:25:11.737Z,-66
2022-07-29T22:27:41.037Z,-67
2022-07-29T22:30:10.015Z,-67
2022-07-29T22:32:38.483Z,-67
2022-07-29T22:35:07.680Z,-68
2022-07-29T22:37:36.162Z,-68
2022-07-29T22:40:05.435Z,-67
2022-07-29T22:42:34.589Z,-67
2022-07-29T22:45:03.204Z,-68
2022-07-29T22:47:38.806Z,-67
2022-07-29T22:50:16.308Z,-67
2022-07-29T22:52:44.705Z,-68
2022-07-29T22:55:13.369Z,-67
2022-07-29T22:57:42.022Z,-67
2022-07-29T23:00:11.125Z,-67
2022-07-29T23:02:40.396Z,-67
2022-07-29T23:05:10.446Z,-68
2022-07-29T23:07:38.946Z,-67
2022-07-29T23:10:07.936Z,-67
2022-07-29T23:12:36.523Z,-68
2022-07-29T23:15:05.784Z,-67
2022-07-29T23:17:36.554Z,-68
2022-07-29T23:20:09.783Z,-67
2022-07-29T23:22:38.530Z,-67
2022-07-29T23:25:07.829Z,-67
2022-07-29T23:27:36.348Z,-67
2022-07-29T23:30:05.595Z,-67
2022-07-29T23:32:34.135Z,-67
2022-07-29T23:35:02.667Z,-68
2022-07-29T23:37:31.255Z,-67
2022-07-29T23:39:59.737Z,-67
2022-07-29T23:42:28.402Z,-68
2022-07-29T23:44:56.856Z,-67
2022-07-29T23:47:25.592Z,-66
2022-07-29T23:49:54.087Z,-68
2022-07-29T23:52:22.564Z,-68
2022-07-29T23:54:51.576Z,-68
2022-07-29T23:57:22.807Z,-68
2022-07-29T23:59:51.643Z,-69
